Time;durP1;ratioP1;P1;durP2;ratioP2;P2;SDS_P1;SDS_P2;PMS_P1;PMS_P2;Temp;Humidity;BMP_temperature;BMP_pressure;BME280_temperature;BME280_humidity;BME280_pressure;Samples;Min_cycle;Max_cycle;Signal;HPM_P1;HPM_P2
2022/02/17 00:02:01;;;;;;;;;;;;;;;17.64;49.88;97849.69;4942354;28;98120;-57
2022/02/17 00:04:27;;;;;;;;;;;;;;;17.64;49.85;97847.75;4927281;28;98835;-58
2022/02/17 00:06:52;;;;;;;;;;;;;;;17.65;49.90;97848.53;4923814;28;127905;-63
2022/02/17 00:09:19;;;;;;;;;;;;;;;17.66;49.63;97839.22;4924049;28;118278;-58
2022/02/17 00:11:45;;;;;;;;;;;;;;;17.66;49.90;97820.13;4923399;28;117555;-63
2022/02/17 00:14:11;;;;;;;;;;;;;;;17.66;49.91;97820.91;4935613;28;127823;-64
2022/02/17 00:16:36;;;;;;;;;;;;;;;17.67;49.97;97814.31;4924043;28;127610;-57
2022/02/17 00:19:02;;;;;;;;;;;;;;;17.69;50.06;97788.66;4922559;28;103537;-64
2022/02/17 00:21:29;;;;;;;;;;;;;;;17.70;50.14;97801.09;4938378;28;98596;-64
2022/02/17 00:23:55;;;;;;;;;;;;;;;17.70;50.07;97793.72;4934075;28;121517;-64
2022/02/17 00:26:21;;;;;;;;;;;;;;;17.71;50.06;97764.53;4943328;28;125871;-57
2022/02/17 00:28:49;;;;;;;;;;;;;;;17.72;50.09;97787.88;4943662;28;117250;-64
2022/02/17 00:31:15;;;;;;;;;;;;;;;17.71;50.02;97743.50;4943198;28;118983;-64
2022/02/17 00:33:41;;;;;;;;;;;;;;;17.74;49.94;97739.25;4928824;28;128231;-57
2022/02/17 00:36:07;;;;;;;;;;;;;;;17.74;50.05;97718.25;4922773;28;124292;-57
2022/02/17 00:38:33;;;;;;;;;;;;;;;17.75;49.98;97730.72;4922544;28;110607;-64
2022/02/17 00:40:59;;;;;;;;;;;;;;;17.75;49.84;97728.00;4923615;28;115891;-57
2022/02/17 00:43:25;;;;;;;;;;;;;;;17.77;49.96;97738.53;4924557;28;99335;-64
2022/02/17 00:45:51;;;;;;;;;;;;;;;17.77;49.95;97733.84;4922837;28;126499;-64
2022/02/17 00:48:17;;;;;;;;;;;;;;;17.78;50.09;97735.41;4935306;28;117346;-64
2022/02/17 00:50:43;;;;;;;;;;;;;;;17.80;50.04;97724.94;4939164;28;129603;-64
2022/02/17 00:53:09;;;;;;;;;;;;;;;17.81;49.90;97714.81;4922698;28;126945;-64
2022/02/17 00:55:35;;;;;;;;;;;;;;;17.84;50.00;97722.19;4923960;28;124437;-57
2022/02/17 00:58:01;;;;;;;;;;;;;;;17.84;49.99;97703.94;4923664;28;117537;-64
2022/02/17 01:00:27;;;;;;;;;;;;;;;17.87;49.98;97721.44;4922595;28;99291;-57
2022/02/17 01:02:52;;;;;;;;;;;;;;;17.88;49.93;97690.31;4922640;28;127861;-57
2022/02/17 01:05:20;;;;;;;;;;;;;;;17.89;49.86;97662.69;4921719;28;127857;-64
2022/02/17 01:07:46;;;;;;;;;;;;;;;17.91;49.83;97697.72;4938213;28;98153;-57
2022/02/17 01:10:12;;;;;;;;;;;;;;;17.93;49.84;97670.88;4942665;28;98867;-57
2022/02/17 01:12:38;;;;;;;;;;;;;;;17.94;49.88;97655.31;4936370;28;128333;-57
2022/02/17 01:15:04;;;;;;;;;;;;;;;17.96;49.87;97655.69;4922415;28;126546;-58
2022/02/17 01:17:30;;;;;;;;;;;;;;;17.96;50.05;97645.59;4927888;28;109356;-57
2022/02/17 01:19:56;;;;;;;;;;;;;;;17.97;49.82;97628.09;4941660;28;125921;-57
2022/02/17 01:22:22;;;;;;;;;;;;;;;17.99;49.80;97636.63;4941730;28;129598;-57
2022/02/17 01:24:48;;;;;;;;;;;;;;;18.00;49.91;97618.34;4942381;28;127818;-57
2022/02/17 01:27:14;;;;;;;;;;;;;;;18.00;49.88;97627.31;4942478;28;115876;-57
2022/02/17 01:29:40;;;;;;;;;;;;;;;18.04;49.87;97635.50;4943230;28;98223;-57
2022/02/17 01:32:06;;;;;;;;;;;;;;;18.03;49.88;97623.81;4941653;28;127873;-58
2022/02/17 01:34:32;;;;;;;;;;;;;;;18.04;50.05;97610.97;4941897;28;118723;-57
2022/02/17 01:36:58;;;;;;;;;;;;;;;18.06;49.77;97619.53;4941789;28;97882;-64
2022/02/17 01:39:23;;;;;;;;;;;;;;;18.05;49.78;97602.41;4941593;28;115913;-64
2022/02/17 01:41:49;;;;;;;;;;;;;;;18.07;49.85;97596.56;4942000;28;128131;-64
2022/02/17 01:44:15;;;;;;;;;;;;;;;18.08;49.68;97606.31;4923938;28;98293;-64
2022/02/17 01:46:42;;;;;;;;;;;;;;;18.09;49.94;97607.88;4938349;28;97963;-64
2022/02/17 01:49:09;;;;;;;;;;;;;;;18.09;49.84;97611.38;4941707;28;98282;-64
2022/02/17 01:51:35;;;;;;;;;;;;;;;18.11;49.69;97600.06;4942515;28;98348;-57
2022/02/17 01:54:02;;;;;;;;;;;;;;;18.11;49.63;97594.63;4943359;28;97933;-64
2022/02/17 01:56:28;;;;;;;;;;;;;;;18.11;49.82;97595.41;4942558;28;98997;-57
2022/02/17 01:58:54;;;;;;;;;;;;;;;18.13;49.98;97581.41;4939855;28;121816;-57
2022/02/17 02:01:22;;;;;;;;;;;;;;;18.14;49.74;97581.00;4940106;28;98881;-57
2022/02/17 02:03:48;;;;;;;;;;;;;;;18.16;49.78;97591.53;4935950;28;97850;-57
2022/02/17 02:06:15;;;;;;;;;;;;;;;18.14;49.77;97548.31;4920851;28;108859;-57
2022/02/17 02:08:41;;;;;;;;;;;;;;;18.17;49.70;97587.63;4927635;28;99287;-64
2022/02/17 02:11:07;;;;;;;;;;;;;;;18.17;49.78;97573.22;4941369;28;120677;-64
2022/02/17 02:13:35;;;;;;;;;;;;;;;18.19;49.83;97588.03;4932189;28;111062;-57
2022/02/17 02:16:01;;;;;;;;;;;;;;;18.20;49.95;97611.41;4922584;28;97857;-57
2022/02/17 02:18:27;;;;;;;;;;;;;;;18.20;49.95;97605.19;4921941;28;99383;-64
2022/02/17 02:20:54;;;;;;;;;;;;;;;18.21;49.97;97601.28;4921860;28;98900;-57
2022/02/17 02:23:20;;;;;;;;;;;;;;;18.22;49.76;97611.00;4922571;28;97795;-57
2022/02/17 02:25:48;;;;;;;;;;;;;;;18.22;49.76;97611.00;4922472;28;97993;-58
2022/02/17 02:28:17;;;;;;;;;;;;;;;18.23;49.96;97616.06;4921565;28;121716;-57
2022/02/17 02:30:43;;;;;;;;;;;;;;;18.24;49.95;97612.19;4921510;28;98647;-64
2022/02/17 02:33:09;;;;;;;;;;;;;;;18.25;50.02;97600.13;4922255;28;98588;-63
2022/02/17 02:35:35;;;;;;;;;;;;;;;18.25;49.91;97594.66;4922191;28;98050;-57
2022/02/17 02:38:01;;;;;;;;;;;;;;;18.27;49.84;97643.34;4922093;28;99256;-57
2022/02/17 02:40:27;;;;;;;;;;;;;;;18.28;49.98;97782.00;4923391;28;127684;-57
2022/02/17 02:42:53;;;;;;;;;;;;;;;18.29;49.96;97810.06;4942404;28;98183;-63
2022/02/17 02:45:19;;;;;;;;;;;;;;;18.28;49.98;97797.59;4941298;28;110501;-63
2022/02/17 02:47:45;;;;;;;;;;;;;;;18.25;50.01;97801.84;4946643;28;113539;-57
2022/02/17 02:50:11;;;;;;;;;;;;;;;18.21;49.98;97764.84;4940813;28;98834;-64
2022/02/17 02:52:37;;;;;;;;;;;;;;;18.18;49.91;97776.50;4940693;28;117179;-57
2022/02/17 02:55:03;;;;;;;;;;;;;;;18.13;50.04;97783.88;4941750;28;97844;-58
2022/02/17 02:57:29;;;;;;;;;;;;;;;18.10;50.08;97775.69;4939908;28;120818;-57
2022/02/17 02:59:55;;;;;;;;;;;;;;;18.06;50.25;97767.47;4940453;28;127770;-63
2022/02/17 03:02:21;;;;;;;;;;;;;;;18.03;50.33;97783.81;4940752;28;116207;-57
2022/02/17 03:04:47;;;;;;;;;;;;;;;17.99;50.31;97816.50;4942378;28;97888;-63
2022/02/17 03:07:12;;;;;;;;;;;;;;;17.98;50.45;97770.56;4928217;28;117234;-57
2022/02/17 03:09:38;;;;;;;;;;;;;;;17.94;50.48;97747.97;4935033;28;127633;-63
2022/02/17 03:12:05;;;;;;;;;;;;;;;17.91;50.35;97742.09;4940106;28;106972;-64
2022/02/17 03:14:31;;;;;;;;;;;;;;;17.88;50.40;97702.00;4940818;28;98164;-56
2022/02/17 03:16:57;;;;;;;;;;;;;;;17.87;50.52;97703.16;4941186;28;98353;-63
2022/02/17 03:19:23;;;;;;;;;;;;;;;17.84;50.47;97697.69;4923561;28;126507;-57
2022/02/17 03:21:49;;;;;;;;;;;;;;;17.84;50.62;97694.97;4941462;28;97972;-57
2022/02/17 03:24:15;;;;;;;;;;;;;;;17.82;50.73;97684.44;4941113;28;97959;-64
2022/02/17 03:26:41;;;;;;;;;;;;;;;17.82;50.70;97686.41;4940325;28;98030;-56
2022/02/17 03:29:07;;;;;;;;;;;;;;;17.81;50.76;97691.06;4940617;28;98324;-57
2022/02/17 03:31:33;;;;;;;;;;;;;;;17.80;50.79;97703.13;4940265;28;126664;-57
2022/02/17 03:33:59;;;;;;;;;;;;;;;17.81;50.71;97722.97;4940087;28;115752;-57
2022/02/17 03:36:25;;;;;;;;;;;;;;;17.80;50.95;97722.22;4940161;28;101205;-57
2022/02/17 03:38:51;;;;;;;;;;;;;;;17.79;50.94;97728.78;4930664;28;127811;-57
2022/02/17 03:41:17;;;;;;;;;;;;;;;17.79;50.84;97742.41;4920342;28;125681;-57
2022/02/17 03:43:43;;;;;;;;;;;;;;;17.79;51.00;97768.88;4921837;28;97910;-64
2022/02/17 03:46:09;;;;;;;;;;;;;;;17.78;51.13;97757.22;4911499;28;127944;-57
2022/02/17 03:48:34;;;;;;;;;;;;;;;17.79;50.98;97774.34;4952016;28;127616;-56
2022/02/17 03:51:00;;;;;;;;;;;;;;;17.77;51.08;97788.34;4920031;28;125462;-57
2022/02/17 03:53:26;;;;;;;;;;;;;;;17.77;51.02;97791.06;4920958;28;116457;-62
2022/02/17 03:55:52;;;;;;;;;;;;;;;17.76;50.96;97764.19;4917936;28;127682;-63
2022/02/17 04:01:03;;;;;;;;;;;;;;;17.70;50.81;97777.38;4920057;28;97868;-63
2022/02/17 04:03:29;;;;;;;;;;;;;;;17.65;50.85;97781.22;4919821;28;120155;-64
2022/02/17 04:05:56;;;;;;;;;;;;;;;17.62;50.74;97765.63;4923292;28;98891;-63
2022/02/17 04:08:22;;;;;;;;;;;;;;;17.60;50.76;97756.28;4940213;28;98004;-63
2022/02/17 04:10:48;;;;;;;;;;;;;;;17.57;50.77;97797.91;4940803;28;97885;-56
2022/02/17 04:13:14;;;;;;;;;;;;;;;17.53;50.74;97757.03;4940156;28;115610;-64
2022/02/17 04:15:40;;;;;;;;;;;;;;;17.50;50.61;97748.81;4927817;28;128880;-57
2022/02/17 04:18:06;;;;;;;;;;;;;;;17.49;50.68;97728.19;4919545;28;98226;-57
2022/02/17 04:20:32;;;;;;;;;;;;;;;17.46;50.57;97727.00;4939400;28;127337;-58
2022/02/17 04:22:57;;;;;;;;;;;;;;;17.43;50.65;97723.09;4940239;28;117082;-58
2022/02/17 04:25:24;;;;;;;;;;;;;;;17.41;50.57;97724.66;4939632;28;127317;-64
2022/02/17 04:27:50;;;;;;;;;;;;;;;17.38;50.56;97739.78;4932883;28;98949;-57
2022/02/17 04:30:16;;;;;;;;;;;;;;;17.35;50.43;97762.31;4919777;28;127468;-64
2022/02/17 04:32:41;;;;;;;;;;;;;;;17.35;50.53;97747.94;4920229;28;115889;-64
2022/02/17 04:35:08;;;;;;;;;;;;;;;17.33;50.55;97769.28;4934784;28;126054;-64
2022/02/17 04:37:34;;;;;;;;;;;;;;;17.30;50.32;97789.91;4939540;28;115629;-57
2022/02/17 04:40:00;;;;;;;;;;;;;;;17.28;50.36;97807.75;4940017;28;126593;-64
2022/02/17 04:42:27;;;;;;;;;;;;;;;17.27;50.38;97842.38;4944115;28;98165;-64
2022/02/17 04:44:53;;;;;;;;;;;;;;;17.26;50.34;97840.81;4943857;28;98587;-58
2022/02/17 04:47:19;;;;;;;;;;;;;;;17.25;50.19;97817.47;4942121;28;117364;-64
2022/02/17 04:49:48;;;;;;;;;;;;;;;17.23;50.27;97827.16;4942983;28;98685;-57
2022/02/17 04:52:13;;;;;;;;;;;;;;;17.22;50.27;97831.81;4941206;28;98024;-63
2022/02/17 04:54:39;;;;;;;;;;;;;;;17.20;50.14;97811.56;4923724;28;98684;-57
2022/02/17 04:57:06;;;;;;;;;;;;;;;17.19;50.07;97827.13;4922882;28;128140;-57
2022/02/17 04:59:32;;;;;;;;;;;;;;;17.18;49.95;97829.06;4938822;28;98552;-64
2022/02/17 05:01:58;;;;;;;;;;;;;;;17.16;49.84;97809.59;4923388;28;97743;-64
2022/02/17 05:04:24;;;;;;;;;;;;;;;17.15;49.85;97827.09;4923159;28;122308;-64
2022/02/17 05:06:50;;;;;;;;;;;;;;;17.13;49.80;97823.97;4923107;28;128250;-64
2022/02/17 05:09:16;;;;;;;;;;;;;;;17.12;49.83;97786.22;4923094;28;117952;-64
2022/02/17 05:11:41;;;;;;;;;;;;;;;17.11;49.75;97801.78;4923028;28;117774;-57
2022/02/17 05:14:07;;;;;;;;;;;;;;;17.10;49.65;97807.59;4940371;28;128159;-57
2022/02/17 05:16:33;;;;;;;;;;;;;;;17.08;49.76;97824.28;4941734;28;125512;-58
2022/02/17 05:18:59;;;;;;;;;;;;;;;17.07;49.71;97827.41;4942170;28;97884;-57
2022/02/17 05:21:25;;;;;;;;;;;;;;;17.08;49.62;97853.44;4941916;28;117766;-57
2022/02/17 05:23:51;;;;;;;;;;;;;;;17.07;49.47;97855.38;4927434;28;127413;-57
2022/02/17 05:26:17;;;;;;;;;;;;;;;17.07;49.59;97868.22;4923161;28;100424;-64
2022/02/17 05:28:43;;;;;;;;;;;;;;;17.07;49.33;97888.03;4924000;28;98244;-64
2022/02/17 05:31:10;;;;;;;;;;;;;;;17.07;49.42;97865.50;4902428;28;116817;-57
2022/02/17 05:33:35;;;;;;;;;;;;;;;17.06;49.32;97882.97;4930168;28;99123;-57
2022/02/17 05:36:01;;;;;;;;;;;;;;;17.06;49.13;97915.63;4941655;28;128748;-58
2022/02/17 05:38:27;;;;;;;;;;;;;;;17.06;49.18;97949.06;4942841;28;98469;-64
2022/02/17 05:40:53;;;;;;;;;;;;;;;17.06;49.40;97946.34;4941521;28;115493;-64
2022/02/17 05:43:19;;;;;;;;;;;;;;;17.05;49.37;97950.19;4941785;28;127766;-64
2022/02/17 05:45:45;;;;;;;;;;;;;;;17.06;49.21;97968.13;4942872;28;98140;-64
2022/02/17 05:48:11;;;;;;;;;;;;;;;17.06;49.37;97937.41;4940390;28;128511;-64
2022/02/17 05:50:37;;;;;;;;;;;;;;;17.05;49.20;97950.19;4940722;28;117174;-65
2022/02/17 05:53:03;;;;;;;;;;;;;;;17.04;49.18;97951.38;4942185;28;128968;-64
2022/02/17 05:55:29;;;;;;;;;;;;;;;17.03;49.14;97987.13;4942400;28;98517;-64
2022/02/17 05:57:55;;;;;;;;;;;;;;;17.02;49.00;97991.78;4930212;28;127951;-64
2022/02/17 06:00:21;;;;;;;;;;;;;;;17.01;49.09;97975.81;4922924;28;97915;-64
2022/02/17 06:02:46;;;;;;;;;;;;;;;16.99;49.04;97984.34;4921614;28;127842;-63
2022/02/17 06:05:12;;;;;;;;;;;;;;;16.99;48.96;97994.47;4921659;28;127491;-64
2022/02/17 06:07:39;;;;;;;;;;;;;;;16.98;49.14;97992.88;4922704;28;127654;-64
2022/02/17 06:10:05;;;;;;;;;;;;;;;16.97;48.94;98002.97;4946687;28;98084;-64
2022/02/17 06:12:31;;;;;;;;;;;;;;;16.97;48.89;98011.13;4922454;28;97956;-63
2022/02/17 06:14:58;;;;;;;;;;;;;;;16.96;48.99;98020.47;4921183;28;128553;-64
2022/02/17 06:17:24;;;;;;;;;;;;;;;16.94;48.77;98036.38;4922736;28;98349;-64
2022/02/17 06:19:51;;;;;;;;;;;;;;;16.95;48.81;98042.59;4921472;28;116324;-64
2022/02/17 06:22:16;;;;;;;;;;;;;;;16.93;48.84;98041.00;4941547;28;98245;-64
2022/02/17 06:27:27;;;;;;;;;;;;;;;16.93;48.88;98048.41;4910078;28;98108;-57
2022/02/17 06:29:53;;;;;;;;;;;;;;;16.91;48.85;98035.16;4939951;28;117053;-57
2022/02/17 06:32:18;;;;;;;;;;;;;;;16.91;48.86;98043.34;4939153;28;126060;-65
2022/02/17 06:34:44;;;;;;;;;;;;;;;16.91;48.91;98046.06;4941174;28;128072;-56
2022/02/17 06:37:10;;;;;;;;;;;;;;;16.91;48.99;98051.50;4940945;28;126814;-64
2022/02/17 06:39:36;;;;;;;;;;;;;;;16.92;48.81;98063.94;4941930;28;97890;-65
2022/02/17 06:42:02;;;;;;;;;;;;;;;16.93;48.71;98064.72;4941977;28;98788;-63
2022/02/17 06:44:29;;;;;;;;;;;;;;;16.93;48.88;98067.44;4942412;28;98375;-64
2022/02/17 06:46:55;;;;;;;;;;;;;;;16.95;48.63;98058.94;4941870;28;98230;-57
2022/02/17 06:49:21;;;;;;;;;;;;;;;17.00;48.79;98070.28;4941409;28;97938;-58
2022/02/17 06:51:47;;;;;;;;;;;;;;;17.01;48.58;98069.09;4941466;28;98933;-64
2022/02/17 06:54:13;;;;;;;;;;;;;;;17.03;48.50;98082.38;4940891;28;105017;-57
2022/02/17 06:56:39;;;;;;;;;;;;;;;17.03;48.52;98083.16;4940233;28;127094;-65
2022/02/17 06:59:05;;;;;;;;;;;;;;;17.02;48.62;98097.13;4923171;28;117420;-64
2022/02/17 07:01:31;;;;;;;;;;;;;;;17.03;48.35;98098.69;4936194;28;99259;-63
2022/02/17 07:03:57;;;;;;;;;;;;;;;17.06;48.46;98108.84;4939436;28;127361;-64
2022/02/17 07:06:23;;;;;;;;;;;;;;;17.13;48.39;98104.28;4933886;28;98008;-64
2022/02/17 07:08:49;;;;;;;;;;;;;;;17.20;48.23;98105.53;4921632;28;97643;-64
2022/02/17 07:11:15;;;;;;;;;;;;;;;17.17;48.21;98107.03;4921448;28;127135;-64
2022/02/17 07:13:41;;;;;;;;;;;;;;;17.17;48.30;98124.19;4932933;28;128878;-64
2022/02/17 07:16:07;;;;;;;;;;;;;;;17.21;47.98;98123.44;4941028;28;97934;-64
2022/02/17 07:18:33;;;;;;;;;;;;;;;17.22;48.28;98120.34;4938487;28;116774;-58
2022/02/17 07:20:59;;;;;;;;;;;;;;;17.23;48.12;98138.25;4941076;28;98207;-57
2022/02/17 07:23:26;;;;;;;;;;;;;;;17.27;48.03;98128.19;4938604;28;128853;-57
2022/02/17 07:25:52;;;;;;;;;;;;;;;17.28;47.92;98115.38;4971685;28;99968;-57
2022/02/17 07:28:22;;;;;;;;;;;;;;;17.32;47.87;98121.66;4941108;28;98006;-64
2022/02/17 07:30:48;;;;;;;;;;;;;;;17.35;47.61;98159.03;4940182;28;98230;-64
2022/02/17 07:33:14;;;;;;;;;;;;;;;17.37;47.83;98137.66;4940525;28;109072;-64
2022/02/17 07:35:40;;;;;;;;;;;;;;;17.40;47.55;98121.38;4937269;28;127452;-58
2022/02/17 07:38:07;;;;;;;;;;;;;;;17.49;47.35;98142.09;4921400;28;115032;-58
2022/02/17 07:40:33;;;;;;;;;;;;;;;17.58;47.34;98145.34;4921079;28;98982;-63
2022/02/17 07:42:59;;;;;;;;;;;;;;;17.72;47.08;98155.63;4922977;28;98450;-64
2022/02/17 07:45:24;;;;;;;;;;;;;;;17.80;47.11;98140.97;4925555;28;125516;-57
2022/02/17 07:47:52;;;;;;;;;;;;;;;17.88;46.88;98140.69;4940987;28;97877;-57
2022/02/17 07:50:19;;;;;;;;;;;;;;;17.87;46.93;98141.84;4940770;28;98428;-57
2022/02/17 07:52:45;;;;;;;;;;;;;;;17.85;46.91;98148.81;4936786;28;98545;-57
2022/02/17 07:55:12;;;;;;;;;;;;;;;17.84;46.90;98156.22;4955031;28;98904;-64
2022/02/17 07:57:38;;;;;;;;;;;;;;;17.90;46.88;98162.13;4940416;28;101152;-64
2022/02/17 08:00:05;;;;;;;;;;;;;;;17.97;46.62;98167.66;4939960;28;125758;-57
2022/02/17 08:02:31;;;;;;;;;;;;;;;18.11;46.41;98165.06;4937760;28;98094;-58
2022/02/17 08:04:59;;;;;;;;;;;;;;;18.14;46.19;98171.72;4930060;28;127499;-64
2022/02/17 08:07:25;;;;;;;;;;;;;;;18.23;46.39;98152.34;4921798;28;98040;-57
2022/02/17 08:09:51;;;;;;;;;;;;;;;19.04;45.20;98170.66;4919406;28;106190;-64
2022/02/17 08:12:18;;;;;;;;;;;;;;;19.66;44.42;98183.59;4923603;28;98919;-65
2022/02/17 08:14:44;;;;;;;;;;;;;;;20.32;43.83;98185.03;4929361;28;98089;-64
2022/02/17 08:17:10;;;;;;;;;;;;;;;20.91;43.19;98173.78;4941457;28;117005;-64
2022/02/17 08:19:36;;;;;;;;;;;;;;;21.36;42.96;98179.66;4922595;28;115038;-64
2022/02/17 08:22:02;;;;;;;;;;;;;;;21.59;43.16;98160.03;4925812;28;98422;-64
2022/02/17 08:24:28;;;;;;;;;;;;;;;22.11;42.53;98186.88;4925126;28;97907;-65
2022/02/17 08:26:56;;;;;;;;;;;;;;;22.58;42.13;98177.22;4930266;28;97787;-65
2022/02/17 08:29:23;;;;;;;;;;;;;;;23.03;41.81;98210.28;4975011;28;98075;-65
2022/02/17 08:31:49;;;;;;;;;;;;;;;23.47;41.40;98204.00;4934682;28;98961;-64
2022/02/17 08:34:18;;;;;;;;;;;;;;;23.91;41.10;98196.88;4941511;28;99528;-65
2022/02/17 08:36:44;;;;;;;;;;;;;;;24.35;41.20;98195.13;4943102;28;107211;-65
2022/02/17 08:39:10;;;;;;;;;;;;;;;24.71;41.00;98139.56;4943633;28;99069;-65
2022/02/17 08:41:36;;;;;;;;;;;;;;;25.22;40.53;98201.72;4931086;28;107625;-64
2022/02/17 08:44:05;;;;;;;;;;;;;;;25.70;40.06;98219.81;4925023;28;98574;-65
2022/02/17 08:46:32;;;;;;;;;;;;;;;26.25;39.79;98217.56;4923857;28;97949;-65
2022/02/17 08:48:58;;;;;;;;;;;;;;;26.77;39.54;98214.09;4924129;28;98503;-64
2022/02/17 08:51:27;;;;;;;;;;;;;;;27.13;39.35;98229.84;4922581;28;128400;-65
2022/02/17 08:53:53;;;;;;;;;;;;;;;27.61;39.06;98229.00;4923648;28;98454;-65
2022/02/17 08:56:19;;;;;;;;;;;;;;;28.05;38.82;98232.19;4923019;28;116616;-65
2022/02/17 08:58:45;;;;;;;;;;;;;;;28.46;38.74;98227.91;4937928;28;98983;-65
2022/02/17 09:01:11;;;;;;;;;;;;;;;28.86;38.70;98244.09;4941471;28;112678;-65
2022/02/17 09:03:37;;;;;;;;;;;;;;;29.19;38.17;98247.41;4930274;28;98345;-65
2022/02/17 09:06:03;;;;;;;;;;;;;;;29.57;38.31;98252.13;4921485;28;118478;-65
2022/02/17 09:08:29;;;;;;;;;;;;;;;29.85;37.67;98253.16;4937206;28;127992;-65
2022/02/17 09:10:56;;;;;;;;;;;;;;;30.37;37.73;98221.13;4922512;28;127940;-66
2022/02/17 09:13:23;;;;;;;;;;;;;;;30.47;37.68;98249.75;4935208;28;98345;-65
2022/02/17 09:15:49;;;;;;;;;;;;;;;31.05;36.91;98257.44;4943432;28;97821;-65
2022/02/17 09:18:15;;;;;;;;;;;;;;;30.95;37.27;98278.09;4943275;28;98387;-58
2022/02/17 09:20:41;;;;;;;;;;;;;;;31.32;36.64;98283.78;4942228;28;128612;-58
2022/02/17 09:23:07;;;;;;;;;;;;;;;31.51;36.39;98275.03;4942390;28;126132;-58
2022/02/17 09:25:36;;;;;;;;;;;;;;;31.52;36.40;98273.03;4942035;28;97889;-65
2022/02/17 09:28:05;;;;;;;;;;;;;;;31.91;35.81;98304.81;4941717;28;97961;-66
2022/02/17 09:30:31;;;;;;;;;;;;;;;31.86;35.88;98297.06;4942546;28;98789;-59
2022/02/17 09:32:57;;;;;;;;;;;;;;;31.15;36.65;98289.59;4941846;28;117926;-58
2022/02/17 09:35:23;;;;;;;;;;;;;;;30.95;36.33;98292.75;4943039;28;97905;-59
2022/02/17 09:37:48;;;;;;;;;;;;;;;30.78;36.46;98283.91;4923175;28;127794;-65
2022/02/17 09:40:20;;;;;;;;;;;;;;;30.32;36.60;98308.59;4923046;28;129161;-65
2022/02/17 09:42:46;;;;;;;;;;;;;;;29.77;36.65;98313.69;4929226;28;97681;-58
2022/02/17 09:45:12;;;;;;;;;;;;;;;29.53;36.87;98306.94;4973565;28;116491;-65
2022/02/17 09:47:39;;;;;;;;;;;;;;;29.28;36.33;98318.88;4940862;28;125588;-58
2022/02/17 09:50:06;;;;;;;;;;;;;;;29.66;35.79;98312.50;4942005;28;98730;-58
2022/02/17 09:52:32;;;;;;;;;;;;;;;28.84;36.51;98337.97;4936816;28;125446;-58
2022/02/17 09:54:59;;;;;;;;;;;;;;;28.21;37.20;98322.72;4952280;28;98128;-58
2022/02/17 09:57:25;;;;;;;;;;;;;;;28.05;36.85;98318.00;4923675;28;113508;-58
2022/02/17 09:59:50;;;;;;;;;;;;;;;27.92;36.70;98352.41;4921546;28;108902;-58
2022/02/17 10:02:23;;;;;;;;;;;;;;;28.23;36.27;98350.00;4921802;28;126444;-58
2022/02/17 10:04:54;;;;;;;;;;;;;;;28.07;36.13;98356.34;4964945;28;97841;-57
2022/02/17 10:07:36;;;;;;;;;;;;;;;27.21;36.93;98349.34;4941183;28;98447;-58
2022/02/17 10:10:09;;;;;;;;;;;;;;;26.74;37.07;98330.97;4941059;28;98608;-58
2022/02/17 10:12:54;;;;;;;;;;;;;;;26.33;37.04;98376.38;4942151;28;97921;-58
2022/02/17 10:15:31;;;;;;;;;;;;;;;25.89;37.48;98353.47;4943043;28;98005;-57
2022/02/17 10:18:00;;;;;;;;;;;;;;;25.51;37.51;98377.72;4941886;28;98363;-64
2022/02/17 10:20:27;;;;;;;;;;;;;;;25.29;37.59;98382.78;4941886;28;99524;-65
2022/02/17 10:22:52;;;;;;;;;;;;;;;25.40;36.91;98408.22;4942454;28;98465;-65
2022/02/17 10:25:19;;;;;;;;;;;;;;;25.75;36.52;98388.78;4940924;28;119253;-65
2022/02/17 10:27:45;;;;;;;;;;;;;;;25.88;36.37;98414.59;4942380;28;97989;-65
2022/02/17 10:30:13;;;;;;;;;;;;;;;25.27;37.17;98407.22;4973242;28;98665;-65
2022/02/17 10:32:56;;;;;;;;;;;;;;;25.90;36.17;98417.75;4940285;28;98123;-58
2022/02/17 10:35:22;;;;;;;;;;;;;;;25.20;37.23;98424.63;4942382;28;97990;-65
2022/02/17 10:37:56;;;;;;;;;;;;;;;24.78;37.60;98439.69;4939288;28;98786;-57
2022/02/17 10:40:26;;;;;;;;;;;;;;;24.45;38.14;98444.00;4941128;28;98913;-58
2022/02/17 10:43:02;;;;;;;;;;;;;;;24.20;38.08;98427.69;4940712;28;120732;-58
2022/02/17 10:45:28;;;;;;;;;;;;;;;23.99;38.44;98454.19;4942131;28;98143;-58
2022/02/17 10:48:03;;;;;;;;;;;;;;;23.74;38.73;98435.13;4934687;28;124983;-58
2022/02/17 10:50:29;;;;;;;;;;;;;;;23.70;38.47;98463.84;4917846;28;121810;-58
2022/02/17 10:52:54;;;;;;;;;;;;;;;23.53;38.70;98458.00;4903553;28;127639;-57
2022/02/17 10:55:20;;;;;;;;;;;;;;;23.94;37.86;98471.13;4921407;28;116974;-58
2022/02/17 10:57:47;;;;;;;;;;;;;;;24.07;37.78;98500.91;4908903;28;128366;-58
2022/02/17 11:00:16;;;;;;;;;;;;;;;23.83;38.29;98483.41;4914682;28;127776;-57
2022/02/17 11:02:43;;;;;;;;;;;;;;;24.62;36.94;98502.81;4920484;28;97903;-58
2022/02/17 11:05:09;;;;;;;;;;;;;;;24.02;37.84;98498.59;4921140;28;113087;-58
2022/02/17 11:07:39;;;;;;;;;;;;;;;24.13;37.96;98500.09;4919286;28;98165;-58
2022/02/17 11:10:07;;;;;;;;;;;;;;;24.13;37.72;98515.78;4921272;28;97855;-58
2022/02/17 11:12:33;;;;;;;;;;;;;;;24.12;38.06;98501.25;4925312;28;98519;-58
2022/02/17 11:14:59;;;;;;;;;;;;;;;23.91;38.28;98515.97;4955564;28;98087;-58
2022/02/17 11:17:25;;;;;;;;;;;;;;;23.79;38.48;98515.66;4940377;28;98802;-58
2022/02/17 11:19:52;;;;;;;;;;;;;;;24.98;36.77;98509.50;4941056;28;117562;-65
2022/02/17 11:22:17;;;;;;;;;;;;;;;24.90;36.95;98537.56;4941289;28;98009;-65
2022/02/17 11:24:48;;;;;;;;;;;;;;;24.55;37.68;98509.19;4972919;28;98158;-65
2022/02/17 11:27:14;;;;;;;;;;;;;;;24.89;37.18;98516.72;4965679;28;101984;-58
2022/02/17 11:29:41;;;;;;;;;;;;;;;25.08;37.26;98527.13;4921429;28;118639;-64
2022/02/17 11:32:11;;;;;;;;;;;;;;;25.40;37.04;98526.78;4922470;28;98332;-65
2022/02/17 11:34:38;;;;;;;;;;;;;;;25.66;36.90;98535.47;4921623;28;98071;-58
2022/02/17 11:37:28;;;;;;;;;;;;;;;25.87;36.99;98542.72;4920939;28;98168;-65
2022/02/17 11:39:57;;;;;;;;;;;;;;;26.15;36.71;98531.25;4921175;28;99272;-58
2022/02/17 11:42:27;;;;;;;;;;;;;;;26.17;36.89;98539.91;4922298;28;98509;-58
2022/02/17 11:45:07;;;;;;;;;;;;;;;25.90;37.11;98545.44;4922213;28;98397;-58
2022/02/17 11:48:05;;;;;;;;;;;;;;;26.25;36.98;98554.34;4921088;28;99139;-57
2022/02/17 11:50:32;;;;;;;;;;;;;;;26.12;37.02;98543.13;4926486;28;98620;-67
2022/02/17 11:53:24;;;;;;;;;;;;;;;25.66;37.54;98554.78;4926454;28;126188;-65
2022/02/17 11:55:51;;;;;;;;;;;;;;;25.73;37.13;98540.91;4942170;28;97994;-65
2022/02/17 11:58:38;;;;;;;;;;;;;;;25.50;37.50;98563.66;4947606;28;98417;-65
2022/02/17 12:01:26;;;;;;;;;;;;;;;25.03;37.69;98590.94;4947243;28;99249;-58
2022/02/17 12:04:02;;;;;;;;;;;;;;;24.94;37.30;98585.91;4948605;28;98777;-65
2022/02/17 12:06:38;;;;;;;;;;;;;;;24.94;37.12;98583.16;4948046;28;97968;-58
2022/02/17 12:09:05;;;;;;;;;;;;;;;24.88;37.05;98582.06;4947770;28;98711;-58
2022/02/17 12:11:37;;;;;;;;;;;;;;;24.79;37.20;98586.47;4946533;28;98861;-58
2022/02/17 12:14:07;;;;;;;;;;;;;;;24.70;37.30;98592.44;4947453;28;98743;-65
2022/02/17 12:16:34;;;;;;;;;;;;;;;24.49;37.19;98593.41;4945640;28;98149;-65
2022/02/17 12:19:16;;;;;;;;;;;;;;;24.31;37.27;98603.75;4922038;28;98408;-57
2022/02/17 12:21:43;;;;;;;;;;;;;;;23.99;37.73;98612.97;4927540;28;98465;-57
2022/02/17 12:24:10;;;;;;;;;;;;;;;23.75;37.77;98617.44;4926112;28;98118;-57
2022/02/17 12:26:39;;;;;;;;;;;;;;;23.54;38.01;98629.28;4928416;28;98161;-65
2022/02/17 12:29:33;;;;;;;;;;;;;;;23.35;37.95;98633.25;4944621;28;99350;-57
2022/02/17 12:32:00;;;;;;;;;;;;;;;23.33;37.98;98630.09;4965784;28;98498;-58
2022/02/17 12:34:26;;;;;;;;;;;;;;;23.19;37.91;98647.44;4930287;28;99933;-58
2022/02/17 12:36:52;;;;;;;;;;;;;;;23.13;37.99;98631.72;4945529;28;114178;-61
2022/02/17 12:39:18;;;;;;;;;;;;;;;23.05;37.82;98650.19;4945580;28;125713;-57
2022/02/17 12:42:05;;;;;;;;;;;;;;;22.94;38.14;98655.69;4945906;28;128228;-58
2022/02/17 12:44:35;;;;;;;;;;;;;;;22.84;38.02;98672.94;4940385;28;127118;-58
2022/02/17 12:47:01;;;;;;;;;;;;;;;22.66;38.11;98663.91;4927198;28;98152;-65
2022/02/17 12:49:29;;;;;;;;;;;;;;;22.47;38.42;98670.53;4953435;28;98611;-64